KRID/RID METAR and TAF weather

Enter ICAO airport designator
Station Type Date Time Source
KRID METAR 2021/08/04 20:35 UTC NOAA

KRID 042035Z AUTO 07004KT 10SM SCT075 BKN085 27/15 A3012 RMK AO2


Station Type Date Time Source
KRID Decoded METAR 2021/08/04 20:35 UTC NOAA

Station name not available
Aug 04, 2021 - 04:35 PM EDT / 2021.08.04 2035 UTC
Wind: from the ENE (070 degrees) at 5 MPH (4 KT):0
Visibility: 10 mile(s):0
Sky conditions: mostly cloudy
Temperature: 80 F (27 C)
Dew Point: 59 F (15 C)
Relative Humidity: 47%
Pressure (altimeter): 30.12 in. Hg (1019 hPa)
ob: KRID 042035Z AUTO 07004KT 10SM SCT075 BKN085 27/15 A3012 RMK AO2
cycle: 20

Station Type Date Time Source
KRID TAF UTC NOAA

Error!

Example: see airport list